createdAt,value
2023-05-22T00:00:41.458Z,96304.81
2023-05-22T00:03:10.730Z,96298.13
2023-05-22T00:05:39.118Z,96302.41
2023-05-22T00:08:11.512Z,96295.59
2023-05-22T00:10:39.411Z,96296.63
2023-05-22T00:13:08.470Z,96302.47
2023-05-22T00:15:36.005Z,96291.34
2023-05-22T00:18:04.031Z,96295.59
2023-05-22T00:20:31.654Z,96291.84
2023-05-22T00:23:01.178Z,96288.84
2023-05-22T00:25:28.760Z,96280.63
2023-05-22T00:27:56.415Z,96282.78
2023-05-22T00:30:25.282Z,96293.34
2023-05-22T00:32:52.875Z,96286.31
2023-05-22T00:35:20.721Z,96287.25
2023-05-22T00:37:48.322Z,96285.50
2023-05-22T00:40:16.606Z,96290.53
2023-05-22T00:42:44.456Z,96289.66
2023-05-22T00:45:12.895Z,96285.78
2023-05-22T00:47:42.137Z,96284.66
2023-05-22T00:50:12.336Z,96282.09
2023-05-22T00:52:46.574Z,96287.38
2023-05-22T00:55:16.857Z,96285.22
2023-05-22T00:57:45.920Z,96275.69
2023-05-22T01:00:16.765Z,96285.78
2023-05-22T01:02:45.733Z,96280.41
2023-05-22T01:05:18.060Z,96276.41
2023-05-22T01:07:45.959Z,96282.75
2023-05-22T01:10:13.548Z,96279.53
2023-05-22T01:12:53.558Z,96289.38
2023-05-22T01:15:27.486Z,96292.22
2023-05-22T01:18:11.164Z,96285.94
2023-05-22T01:20:42.648Z,96287.81
2023-05-22T01:23:34.148Z,96288.91
2023-05-22T01:26:39.876Z,96287.78
2023-05-22T01:29:26.056Z,96285.94
2023-05-22T01:31:58.559Z,96295.84
2023-05-22T01:34:28.032Z,96302.03
2023-05-22T01:36:57.259Z,96307.94
2023-05-22T01:39:26.438Z,96305.28
2023-05-22T01:41:54.460Z,96303.34
2023-05-22T01:44:23.505Z,96309.09
2023-05-22T01:46:51.147Z,96311.84
2023-05-22T01:49:20.061Z,96318.38
2023-05-22T01:51:53.711Z,96318.38
2023-05-22T01:54:25.826Z,96321.25
2023-05-22T01:56:55.985Z,96325.03
2023-05-22T01:59:33.354Z,96324.34
2023-05-22T02:02:05.836Z,96325.50
2023-05-22T02:04:36.395Z,96322.50
2023-05-22T02:07:05.001Z,96327.00
2023-05-22T02:09:33.435Z,96328.34
2023-05-22T02:12:03.988Z,96327.41
2023-05-22T02:14:32.560Z,96326.84
2023-05-22T02:17:02.126Z,96329.06
2023-05-22T02:19:29.888Z,96326.53
2023-05-22T02:21:58.831Z,96330.72
2023-05-22T02:24:26.372Z,96331.03
2023-05-22T02:26:53.972Z,96332.16
2023-05-22T02:29:21.502Z,96331.69
2023-05-22T02:31:49.061Z,96319.66
2023-05-22T02:34:17.206Z,96328.25
2023-05-22T02:36:44.904Z,96318.97
2023-05-22T02:39:13.841Z,96320.59
2023-05-22T02:41:41.356Z,96320.03
2023-05-22T02:44:08.969Z,96317.03
2023-05-22T02:46:36.547Z,96323.66
2023-05-22T02:49:04.162Z,96322.13
2023-05-22T02:51:31.726Z,96317.75
2023-05-22T02:53:59.298Z,96313.66
2023-05-22T02:56:29.496Z,96316.16
2023-05-22T02:58:57.281Z,96318.78
2023-05-22T03:01:26.398Z,96321.53
2023-05-22T03:03:54.998Z,96324.75
2023-05-22T03:06:23.219Z,96327.47
2023-05-22T03:08:51.032Z,96324.81
2023-05-22T03:11:18.578Z,96324.25
2023-05-22T03:13:47.438Z,96322.38
2023-05-22T03:16:15.097Z,96318.41
2023-05-22T03:18:42.665Z,96330.84
2023-05-22T03:21:10.238Z,96330.84
2023-05-22T03:23:37.809Z,96332.47
2023-05-22T03:26:05.699Z,96335.00
2023-05-22T03:28:33.267Z,96332.22
2023-05-22T03:31:02.180Z,96335.31
2023-05-22T03:33:29.737Z,96337.84
2023-05-22T03:35:57.399Z,96332.91
2023-05-22T03:38:24.910Z,96330.84
2023-05-22T03:40:52.655Z,96332.91
2023-05-22T03:43:20.156Z,96331.31
2023-05-22T03:45:47.779Z,96328.13
2023-05-22T03:48:16.679Z,96331.06
2023-05-22T03:50:44.232Z,96337.19
2023-05-22T03:53:11.868Z,96333.47
2023-05-22T03:55:39.710Z,96333.19
2023-05-22T03:58:07.256Z,96335.00
2023-05-22T04:00:34.836Z,96341.06
2023-05-22T04:03:02.565Z,96335.66
2023-05-22T04:05:31.952Z,96342.38
2023-05-22T04:07:59.720Z,96347.47
2023-05-22T04:10:27.279Z,96337.78
2023-05-22T04:12:54.838Z,96342.03
2023-05-22T04:15:24.045Z,96337.84
2023-05-22T04:17:52.607Z,96345.00
2023-05-22T04:20:22.244Z,96348.22
2023-05-22T04:22:51.564Z,96353.81
2023-05-22T04:25:19.130Z,96347.50
2023-05-22T04:27:47.970Z,96348.50
2023-05-22T04:30:17.035Z,96351.72
2023-05-22T04:32:45.103Z,96356.44
2023-05-22T04:35:12.730Z,96360.38
2023-05-22T04:37:42.260Z,96359.78
2023-05-22T04:40:12.255Z,96361.91
2023-05-22T04:42:40.481Z,96360.09
2023-05-22T04:45:09.150Z,96364.97
2023-05-22T04:47:38.378Z,96362.56
2023-05-22T04:50:07.160Z,96367.81
2023-05-22T04:52:34.805Z,96357.69
2023-05-22T04:55:03.299Z,96367.53
2023-05-22T04:57:34.120Z,96368.94
2023-05-22T05:00:01.914Z,96360.78
2023-05-22T05:02:29.587Z,96365.75
2023-05-22T05:04:57.135Z,96367.13
2023-05-22T05:07:25.126Z,96373.84
2023-05-22T05:09:52.742Z,96373.50
2023-05-22T05:12:20.385Z,96377.53
2023-05-22T05:14:49.254Z,96372.72
2023-05-22T05:17:16.821Z,96374.09
2023-05-22T05:19:44.396Z,96372.63
2023-05-22T05:22:11.972Z,96367.38
2023-05-22T05:24:39.942Z,96365.91
2023-05-22T05:27:07.541Z,96362.69
2023-05-22T05:29:35.148Z,96364.22
2023-05-22T05:32:05.154Z,96374.44
2023-05-22T05:34:32.847Z,96366.19
2023-05-22T05:37:00.459Z,96365.63
2023-05-22T05:39:28.046Z,96362.06
2023-05-22T05:41:55.591Z,96360.63
2023-05-22T05:44:23.199Z,96357.97
2023-05-22T05:46:50.963Z,96359.59
2023-05-22T05:49:20.390Z,96360.78
2023-05-22T05:51:47.940Z,96357.47
2023-05-22T05:54:15.870Z,96354.97
2023-05-22T05:56:43.787Z,96352.69
2023-05-22T07:17:36.787Z,96385.94
2023-05-22T10:08:26.717Z,96362.78
2023-05-22T10:11:12.482Z,96361.66
2023-05-22T10:16:56.853Z,96359.72
2023-05-22T10:19:34.829Z,96345.56
2023-05-22T10:22:09.813Z,96346.03
2023-05-22T11:28:59.166Z,96322.63
2023-05-22T11:34:09.208Z,96319.84
2023-05-22T11:36:49.141Z,96310.16
2023-05-22T11:39:27.832Z,96306.06
2023-05-22T11:42:00.360Z,96307.59
2023-05-22T12:00:41.631Z,96283.38
2023-05-22T12:03:09.423Z,96281.13
2023-05-22T12:05:38.038Z,96280.75
2023-05-22T12:08:05.810Z,96282.03
2023-05-22T12:10:33.457Z,96283.59
2023-05-22T12:13:01.125Z,96275.00
2023-05-22T12:15:28.857Z,96275.69
2023-05-22T12:17:58.301Z,96270.56
2023-05-22T12:20:30.521Z,96271.56
2023-05-22T12:22:58.914Z,96260.88
2023-05-22T12:25:34.938Z,96269.38
2023-05-22T12:28:02.535Z,96264.03
2023-05-22T12:30:40.891Z,96265.50
2023-05-22T12:33:15.258Z,96261.66
2023-05-22T12:35:43.050Z,96253.06
2023-05-22T12:38:13.478Z,96250.91
2023-05-22T12:40:41.282Z,96249.78
2023-05-22T12:43:08.988Z,96255.34
2023-05-22T12:45:36.712Z,96248.63
2023-05-22T12:48:04.383Z,96250.19
2023-05-22T12:50:33.539Z,96250.19
2023-05-22T12:53:02.539Z,96244.25
2023-05-22T12:55:31.058Z,96249.63
2023-05-22T12:57:58.775Z,96254.06
2023-05-22T13:00:26.795Z,96240.09
2023-05-22T13:02:54.801Z,96245.16
2023-05-22T13:05:22.762Z,96253.69
2023-05-22T13:07:51.942Z,96250.00
2023-05-22T13:10:20.143Z,96251.41
2023-05-22T13:12:51.041Z,96250.00
2023-05-22T13:15:21.735Z,96247.81
2023-05-22T13:17:52.450Z,96247.22
2023-05-22T13:20:20.448Z,96240.22
2023-05-22T13:22:48.134Z,96240.72
2023-05-22T13:25:19.125Z,96238.81
2023-05-22T13:27:46.878Z,96234.28
2023-05-22T13:30:14.886Z,96229.44
2023-05-22T13:32:42.496Z,96231.78
2023-05-22T13:35:10.800Z,96231.78
2023-05-22T13:37:38.630Z,96221.91
2023-05-22T13:40:07.656Z,96230.41
2023-05-22T13:42:36.994Z,96221.78
2023-05-22T13:45:05.071Z,96224.94
2023-05-22T13:47:33.055Z,96210.78
2023-05-22T13:50:00.646Z,96214.41
2023-05-22T13:52:28.854Z,96220.28
2023-05-22T13:54:56.408Z,96216.03
2023-05-22T13:57:24.080Z,96212.06
2023-05-22T13:59:53.067Z,96220.38
2023-05-22T14:02:20.874Z,96217.72
2023-05-22T14:04:49.133Z,96219.59
2023-05-22T14:07:16.934Z,96215.63
2023-05-22T14:09:44.535Z,96219.38
2023-05-22T14:12:12.148Z,96219.22
2023-05-22T14:14:39.756Z,96215.53
2023-05-22T14:17:09.373Z,96216.13
2023-05-22T14:19:37.280Z,96226.63
2023-05-22T14:22:05.328Z,96229.09
2023-05-22T14:24:32.890Z,96222.25
2023-05-22T14:27:00.457Z,96217.50
2023-05-22T14:29:29.296Z,96217.00
2023-05-22T14:32:04.867Z,96220.75
2023-05-22T14:34:33.898Z,96219.47
2023-05-22T14:37:01.515Z,96210.13
2023-05-22T14:39:29.161Z,96208.06
2023-05-22T14:41:56.893Z,96205.97
2023-05-22T14:44:24.644Z,96205.19
2023-05-22T14:46:53.441Z,96214.88
2023-05-22T14:49:21.193Z,96222.81
2023-05-22T14:51:50.247Z,96232.09
2023-05-22T14:54:19.263Z,96235.75
2023-05-22T14:56:47.337Z,96240.44
2023-05-22T14:59:14.957Z,96241.66
2023-05-22T15:01:42.573Z,96248.78
2023-05-22T15:04:10.263Z,96255.88
2023-05-22T15:06:38.075Z,96259.19
2023-05-22T15:09:07.042Z,96263.00
2023-05-22T15:11:34.706Z,96258.34
2023-05-22T15:14:02.327Z,96259.44
2023-05-22T15:16:29.981Z,96253.88
2023-05-22T15:18:57.568Z,96264.38
2023-05-22T15:21:25.758Z,96261.75
2023-05-22T15:23:53.300Z,96267.16
2023-05-22T15:26:22.360Z,96278.47
2023-05-22T15:28:49.916Z,96282.34
2023-05-22T15:31:17.531Z,96283.81
2023-05-22T15:33:46.464Z,96274.94
2023-05-22T15:36:14.063Z,96274.22
2023-05-22T15:38:42.532Z,96277.03
2023-05-22T15:41:10.122Z,96264.28
2023-05-22T15:43:39.006Z,96272.88
2023-05-22T15:46:06.611Z,96266.81
2023-05-22T15:48:34.200Z,96282.56
2023-05-22T15:51:01.916Z,96276.72
2023-05-22T15:53:29.471Z,96276.78
2023-05-22T15:55:57.162Z,96276.53
2023-05-22T15:58:24.772Z,96279.25
2023-05-22T16:00:53.694Z,96275.81
2023-05-22T16:03:21.393Z,96275.31
2023-05-22T16:05:49.124Z,96280.16
2023-05-22T16:08:17.932Z,96279.91
2023-05-22T16:10:47.121Z,96278.09
2023-05-22T16:13:15.052Z,96272.81
2023-05-22T16:15:44.623Z,96283.28
2023-05-22T16:18:13.943Z,96289.72
2023-05-22T16:20:41.646Z,96281.53
2023-05-22T16:23:09.280Z,96282.06
2023-05-22T16:25:37.237Z,96280.47
2023-05-22T16:28:05.728Z,96278.88
2023-05-22T16:30:33.418Z,96279.69
2023-05-22T16:33:01.152Z,96284.22
2023-05-22T16:35:30.486Z,96300.47
2023-05-22T16:37:58.097Z,96293.81
2023-05-22T16:40:25.783Z,96293.56
2023-05-22T16:42:53.355Z,96298.06
2023-05-22T16:45:20.934Z,96305.53
2023-05-22T16:47:48.456Z,96293.03
2023-05-22T16:50:16.077Z,96286.66
2023-05-22T16:52:45.001Z,96293.34
2023-05-22T16:55:12.621Z,96282.16
2023-05-22T16:57:40.306Z,96285.59
2023-05-22T17:00:10.921Z,96290.13
2023-05-22T17:02:38.809Z,96282.97
2023-05-22T17:05:07.694Z,96288.06
2023-05-22T17:07:35.356Z,96288.59
2023-05-22T17:10:04.340Z,96275.81
2023-05-22T17:12:31.884Z,96275.28
2023-05-22T17:14:59.482Z,96278.22
2023-05-22T17:17:27.255Z,96278.47
2023-05-22T17:19:54.785Z,96279.03
2023-05-22T17:22:22.389Z,96282.75
2023-05-22T17:24:50.416Z,96286.22
2023-05-22T17:27:34.499Z,96287.00
2023-05-22T17:30:02.944Z,96288.59
2023-05-22T17:32:30.679Z,96291.25
2023-05-22T17:34:58.317Z,96301.91
2023-05-22T17:37:25.909Z,96308.31
2023-05-22T17:39:53.464Z,96312.84
2023-05-22T17:42:22.844Z,96310.44
2023-05-22T17:44:50.581Z,96307.50
2023-05-22T17:47:18.311Z,96302.75
2023-05-22T17:49:45.873Z,96306.22
2023-05-22T17:52:13.985Z,96306.22
2023-05-22T17:54:41.595Z,96300.34
2023-05-22T17:57:09.205Z,96299.84
2023-05-22T17:59:39.998Z,96292.41
2023-05-22T18:02:08.616Z,96299.84
2023-05-22T18:04:37.345Z,96300.63
2023-05-22T18:07:05.028Z,96307.06
2023-05-22T18:12:27.890Z,96304.94
2023-05-22T18:41:01.419Z,96317.16
2023-05-22T18:53:45.764Z,96328.56
2023-05-22T20:09:13.752Z,96362.34
2023-05-22T20:35:14.628Z,96353.38
2023-05-22T20:43:46.201Z,96374.06
2023-05-22T20:59:40.078Z,96393.34
2023-05-22T21:11:43.766Z,96407.84
2023-05-22T21:14:21.102Z,96404.63
2023-05-22T21:25:47.564Z,96421.66
2023-05-22T21:32:09.636Z,96415.44
2023-05-22T21:44:47.558Z,96422.72
2023-05-22T21:47:16.748Z,96435.94
2023-05-22T21:53:31.928Z,96435.44
2023-05-22T21:56:00.968Z,96435.94
2023-05-22T21:58:29.648Z,96429.59
2023-05-22T22:00:57.640Z,96425.34
2023-05-22T22:10:08.858Z,96436.50
2023-05-22T22:12:45.244Z,96436.44
2023-05-22T22:15:25.841Z,96428.41
2023-05-22T22:18:15.670Z,96429.69
2023-05-22T22:21:00.755Z,96430.75
2023-05-22T22:23:28.822Z,96438.59
2023-05-22T22:25:57.037Z,96434.81
2023-05-22T22:28:31.736Z,96437.00
2023-05-22T22:31:07.351Z,96439.94
2023-05-22T22:33:44.984Z,96431.16
2023-05-22T22:36:25.060Z,96428.41
2023-05-22T22:38:52.772Z,96432.81
2023-05-22T22:41:45.421Z,96438.81
2023-05-22T22:44:18.853Z,96444.00
2023-05-22T22:46:46.826Z,96445.44
2023-05-22T22:49:21.670Z,96444.00
2023-05-22T22:52:05.280Z,96452.63
2023-05-22T22:54:42.445Z,96458.13
2023-05-22T22:57:17.947Z,96460.19
2023-05-22T22:59:51.795Z,96459.06
2023-05-22T23:02:29.019Z,96466.91
2023-05-22T23:05:21.643Z,96464.97
2023-05-22T23:07:55.182Z,96465.78
2023-05-22T23:10:33.823Z,96464.88
2023-05-22T23:13:11.642Z,96466.38
2023-05-22T23:15:44.322Z,96466.28
2023-05-22T23:18:22.453Z,96471.00
2023-05-22T23:20:51.317Z,96466.97
2023-05-22T23:23:22.853Z,96471.47
2023-05-22T23:26:01.521Z,96467.22
2023-05-22T23:28:32.095Z,96471.34
2023-05-22T23:31:03.846Z,96460.78
2023-05-22T23:33:31.656Z,96463.06
2023-05-22T23:35:59.492Z,96458.00
2023-05-22T23:38:28.924Z,96465.13
2023-05-22T23:40:57.846Z,96468.72
2023-05-22T23:43:27.866Z,96471.81
2023-05-22T23:45:58.456Z,96471.81
2023-05-22T23:48:26.408Z,96474.47
2023-05-22T23:50:54.287Z,96471.91
2023-05-22T23:53:22.341Z,96469.06
2023-05-22T23:55:56.953Z,96471.91
2023-05-22T23:58:24.941Z,96471.91
